Time;durP1;ratioP1;P1;durP2;ratioP2;P2;SDS_P1;SDS_P2;PMS_P1;PMS_P2;Temp;Humidity;BMP_temperature;BMP_pressure;BME280_temperature;BME280_humidity;BME280_pressure;Samples;Min_cycle;Max_cycle;Signal;HPM_P1;HPM_P2
2023/03/13 00:00:07;;;;;;;14.53;6.93;;;5.00;55.70;;;;;;4902861;29;20550;-58
2023/03/13 00:02:34;;;;;;;17.20;6.97;;;5.00;55.70;;;;;;4905459;29;20206;-60
2023/03/13 00:05:02;;;;;;;19.57;7.53;;;5.00;56.00;;;;;;4903521;29;20207;-59
2023/03/13 00:07:29;;;;;;;25.57;9.43;;;4.90;56.20;;;;;;4909040;29;20217;-60
2023/03/13 00:09:56;;;;;;;25.47;10.17;;;4.90;56.70;;;;;;4907424;29;20663;-59
2023/03/13 00:12:23;;;;;;;30.23;10.00;;;4.90;56.80;;;;;;4909206;29;20210;-59
2023/03/13 00:14:51;;;;;;;29.67;10.17;;;4.80;57.10;;;;;;4908522;29;20619;-60
2023/03/13 00:17:22;;;;;;;21.10;9.07;;;4.80;57.30;;;;;;4913687;29;20206;-59
2023/03/13 00:19:50;;;;;;;26.63;10.60;;;4.80;57.30;;;;;;4913014;29;20206;-60
2023/03/13 00:22:17;;;;;;;28.40;10.70;;;4.80;57.60;;;;;;4916823;29;20564;-59
2023/03/13 00:24:46;;;;;;;20.73;9.10;;;4.80;57.80;;;;;;4916820;29;20223;-59
2023/03/13 00:27:13;;;;;;;15.17;7.47;;;4.90;57.80;;;;;;4916449;29;20210;-60
2023/03/13 00:29:40;;;;;;;17.43;7.63;;;4.80;57.60;;;;;;4908951;29;20202;-59
2023/03/13 00:32:07;;;;;;;16.80;7.43;;;4.80;57.50;;;;;;4914414;29;20205;-59
2023/03/13 00:34:36;;;;;;;15.67;6.27;;;4.80;57.70;;;;;;4914375;29;20206;-60
2023/03/13 00:37:06;;;;;;;13.17;6.03;;;4.80;57.80;;;;;;4903586;29;20210;-60
2023/03/13 00:39:33;;;;;;;14.33;6.23;;;4.80;57.90;;;;;;4915793;29;20258;-60
2023/03/13 00:42:02;;;;;;;13.57;5.73;;;4.90;57.90;;;;;;4915273;29;20750;-59
2023/03/13 00:44:30;;;;;;;14.00;6.00;;;4.90;58.60;;;;;;4914287;29;20302;-60
2023/03/13 00:46:57;;;;;;;17.03;6.60;;;4.90;58.00;;;;;;4915595;29;20217;-59
2023/03/13 00:49:24;;;;;;;16.53;6.67;;;4.90;58.20;;;;;;4910162;29;20246;-59
2023/03/13 00:51:53;;;;;;;11.30;5.50;;;4.90;58.40;;;;;;4908792;29;20203;-59
2023/03/13 00:54:20;;;;;;;11.53;5.70;;;5.00;58.30;;;;;;4906055;29;20187;-60
2023/03/13 00:56:47;;;;;;;16.30;6.03;;;5.00;58.20;;;;;;4905951;29;20217;-61
2023/03/13 00:59:15;;;;;;;12.13;5.70;;;5.00;58.20;;;;;;4908179;29;20206;-60
2023/03/13 01:01:42;;;;;;;14.37;6.20;;;5.00;58.20;;;;;;4906485;29;20203;-60
2023/03/13 01:04:10;;;;;;;9.90;5.30;;;5.00;58.40;;;;;;4909071;29;20702;-60
2023/03/13 01:06:41;;;;;;;14.23;6.33;;;4.90;58.40;;;;;;4905489;29;20199;-59
2023/03/13 01:09:12;;;;;;;12.50;5.83;;;5.00;58.60;;;;;;4908112;29;20352;-59
2023/03/13 01:11:41;;;;;;;17.73;6.83;;;5.00;58.80;;;;;;4904341;29;20594;-59
2023/03/13 01:14:12;;;;;;;22.70;8.37;;;5.00;59.00;;;;;;4906118;29;20198;-59
2023/03/13 01:16:39;;;;;;;19.63;7.67;;;5.00;59.20;;;;;;4905194;29;20195;-59
2023/03/13 01:19:10;;;;;;;16.83;7.30;;;5.00;59.40;;;;;;4905278;29;20219;-60
2023/03/13 01:21:38;;;;;;;18.10;7.10;;;5.00;59.30;;;;;;4907291;29;20195;-59
2023/03/13 01:24:06;;;;;;;21.97;7.77;;;5.00;59.50;;;;;;4910184;29;20718;-60
2023/03/13 01:26:34;;;;;;;19.57;7.53;;;5.00;59.60;;;;;;4916034;29;20563;-59
2023/03/13 01:29:01;;;;;;;19.90;7.87;;;5.00;59.70;;;;;;4910226;29;20206;-59
2023/03/13 01:31:30;;;;;;;22.43;8.40;;;4.90;60.00;;;;;;4906814;29;20199;-60
2023/03/13 01:34:00;;;;;;;15.07;7.13;;;4.90;60.00;;;;;;4907749;29;20594;-59
2023/03/13 01:36:28;;;;;;;17.77;7.67;;;4.90;60.20;;;;;;4907510;29;20573;-60
2023/03/13 01:38:58;;;;;;;16.03;7.00;;;4.90;60.40;;;;;;4911607;29;20527;-60
2023/03/13 01:41:27;;;;;;;19.57;8.07;;;4.90;60.50;;;;;;4904569;29;20409;-60
2023/03/13 01:43:56;;;;;;;19.57;7.80;;;4.90;60.80;;;;;;4915420;29;20266;-60
2023/03/13 01:46:26;;;;;;;15.07;7.13;;;4.90;61.10;;;;;;4911890;29;20722;-60
2023/03/13 01:49:09;;;;;;;21.57;8.30;;;4.90;61.30;;;;;;4913114;29;20246;-59
2023/03/13 01:51:53;;;;;;;21.77;8.27;;;4.90;61.80;;;;;;4913646;29;20221;-60
2023/03/13 01:54:24;;;;;;;18.77;7.90;;;4.90;62.30;;;;;;4914616;29;20206;-59
2023/03/13 01:56:56;;;;;;;25.67;8.90;;;4.80;62.60;;;;;;4914993;29;20919;-60
2023/03/13 01:59:28;;;;;;;18.90;7.90;;;4.70;63.00;;;;;;4910192;29;20215;-60
2023/03/13 02:02:00;;;;;;;20.00;8.27;;;4.70;63.10;;;;;;5361696;23;20324;-65
2023/03/13 02:04:35;;;;;;;19.97;8.63;;;4.70;63.70;;;;;;4913515;29;20222;-65
2023/03/13 02:07:08;;;;;;;23.47;9.07;;;4.70;64.30;;;;;;4916897;29;20277;-65
2023/03/13 02:09:37;;;;;;;20.43;8.70;;;4.70;64.70;;;;;;4916727;29;20237;-65
2023/03/13 02:12:07;;;;;;;21.40;9.17;;;4.70;65.10;;;;;;4926902;29;20201;-65
2023/03/13 02:14:38;;;;;;;26.17;10.30;;;4.60;65.50;;;;;;4932320;29;20209;-65
2023/03/13 02:17:06;;;;;;;20.07;8.43;;;4.60;65.90;;;;;;4912160;29;20254;-65
2023/03/13 02:19:40;;;;;;;26.27;10.27;;;4.60;66.00;;;;;;4912730;29;20213;-65
2023/03/13 02:22:19;;;;;;;35.27;11.63;;;4.60;66.10;;;;;;4913553;29;20657;-65
2023/03/13 02:24:52;;;;;;;38.30;13.10;;;4.60;66.30;;;;;;4919684;29;20225;-65
2023/03/13 02:27:20;;;;;;;39.53;12.60;;;4.70;66.80;;;;;;4920340;29;20206;-65
2023/03/13 02:29:48;;;;;;;37.73;12.27;;;4.60;67.40;;;;;;4914656;29;20218;-65
2023/03/13 02:32:16;;;;;;;33.17;12.00;;;5.20;68.30;;;;;;4920531;29;20309;-65
2023/03/13 02:34:44;;;;;;;38.97;13.60;;;4.50;68.00;;;;;;4921729;29;20203;-65
2023/03/13 02:37:13;;;;;;;39.73;12.53;;;4.60;68.50;;;;;;4915914;29;20296;-65
2023/03/13 02:39:46;;;;;;;43.77;13.53;;;4.60;68.60;;;;;;4932406;29;20252;-66
2023/03/13 02:42:14;;;;;;;48.23;15.67;;;4.60;68.80;;;;;;4924436;29;20221;-66
2023/03/13 02:44:46;;;;;;;47.73;14.07;;;4.60;69.00;;;;;;4911906;29;20222;-65
2023/03/13 02:47:17;;;;;;;60.87;17.63;;;4.60;69.30;;;;;;4925898;29;20884;-66
2023/03/13 02:49:44;;;;;;;55.50;17.40;;;4.60;69.90;;;;;;4914897;29;20201;-66
2023/03/13 02:52:14;;;;;;;44.50;14.53;;;4.60;70.20;;;;;;4919948;29;20203;-65
2023/03/13 02:54:46;;;;;;;40.47;13.63;;;4.60;70.20;;;;;;4912221;29;20241;-66
2023/03/13 02:57:13;;;;;;;36.83;13.40;;;4.60;70.40;;;;;;4922581;29;20554;-66
2023/03/13 02:59:40;;;;;;;35.33;13.30;;;4.60;70.80;;;;;;4915568;29;20194;-65
2023/03/13 03:02:09;;;;;;;29.27;12.27;;;4.60;71.40;;;;;;4924225;29;20241;-65
2023/03/13 03:04:37;;;;;;;31.30;12.27;;;4.60;71.80;;;;;;4928758;29;20218;-65
2023/03/13 03:07:04;;;;;;;34.67;12.87;;;4.70;72.20;;;;;;4909771;29;20293;-65
2023/03/13 03:09:31;;;;;;;29.70;10.93;;;4.70;72.90;;;;;;4924702;29;20198;-65
2023/03/13 03:12:04;;;;;;;30.27;11.30;;;4.60;72.90;;;;;;4912795;29;20210;-65
2023/03/13 03:14:31;;;;;;;32.30;12.07;;;4.60;73.40;;;;;;4912894;29;20203;-65
2023/03/13 03:16:58;;;;;;;34.17;12.13;;;4.60;73.80;;;;;;4909916;29;20258;-65
2023/03/13 03:19:28;;;;;;;33.83;10.87;;;4.60;74.60;;;;;;4914283;29;20206;-66
2023/03/13 03:21:55;;;;;;;23.37;9.20;;;4.60;75.30;;;;;;4911373;29;20253;-65
2023/03/13 03:24:22;;;;;;;19.43;8.67;;;4.60;75.30;;;;;;4921815;29;20217;-65
2023/03/13 03:26:49;;;;;;;21.07;9.23;;;4.60;76.20;;;;;;4913980;29;20203;-65
2023/03/13 03:29:24;;;;;;;21.90;9.00;;;4.60;76.30;;;;;;4922226;29;20210;-65
2023/03/13 03:31:54;;;;;;;23.67;9.03;;;4.70;77.30;;;;;;4909705;29;20210;-65
2023/03/13 03:34:21;;;;;;;24.60;9.20;;;4.60;77.70;;;;;;4921576;29;20234;-65
2023/03/13 03:36:51;;;;;;;27.07;10.03;;;4.60;78.00;;;;;;4916144;29;20209;-67
2023/03/13 03:39:18;;;;;;;25.87;10.17;;;4.60;79.00;;;;;;4915493;29;20210;-65
2023/03/13 03:41:45;;;;;;;24.20;10.10;;;4.60;79.90;;;;;;4916733;29;20202;-65
2023/03/13 03:44:12;;;;;;;23.23;9.33;;;4.50;80.90;;;;;;4914088;29;20554;-66
2023/03/13 03:46:53;;;;;;;23.60;10.50;;;4.50;81.20;;;;;;4914681;29;20220;-66
2023/03/13 03:49:21;;;;;;;23.00;9.50;;;4.50;82.70;;;;;;4918301;29;20296;-66
2023/03/13 03:51:50;;;;;;;20.60;9.40;;;4.40;84.30;;;;;;4912793;29;20568;-65
2023/03/13 03:54:23;;;;;;;22.03;8.93;;;4.40;85.80;;;;;;4914963;29;20236;-65
2023/03/13 03:56:50;;;;;;;18.47;8.60;;;4.40;87.10;;;;;;4922294;29;20221;-65
2023/03/13 03:59:18;;;;;;;19.20;9.20;;;4.40;88.20;;;;;;4915901;29;20653;-66
2023/03/13 04:01:47;;;;;;;20.07;9.07;;;4.40;88.80;;;;;;4924315;29;20205;-66
2023/03/13 04:04:19;;;;;;;21.00;8.67;;;4.40;90.00;;;;;;4912400;29;20222;-65
2023/03/13 04:06:52;;;;;;;15.73;7.50;;;4.40;90.50;;;;;;4910261;29;20223;-65
2023/03/13 04:09:20;;;;;;;16.50;7.57;;;4.30;90.80;;;;;;4930751;29;20209;-65
2023/03/13 04:11:47;;;;;;;18.83;7.50;;;4.40;91.10;;;;;;4928564;29;20202;-65
2023/03/13 04:14:14;;;;;;;20.60;8.20;;;4.40;91.20;;;;;;4912634;29;20222;-65
2023/03/13 04:16:41;;;;;;;17.03;7.30;;;4.50;91.40;;;;;;4911484;29;20282;-66
2023/03/13 04:19:08;;;;;;;15.17;7.80;;;4.50;91.50;;;;;;4912110;29;20217;-65
2023/03/13 04:21:36;;;;;;;10.87;6.10;;;4.50;91.60;;;;;;4916483;29;20205;-65
2023/03/13 04:24:10;;;;;;;10.73;5.90;;;4.60;91.50;;;;;;4911988;29;20234;-65
2023/03/13 04:26:40;;;;;;;14.07;6.80;;;4.70;91.40;;;;;;4911017;29;20225;-65
2023/03/13 04:29:07;;;;;;;12.13;6.23;;;4.70;91.70;;;;;;4912467;29;20206;-65
2023/03/13 04:31:46;;;;;;;18.90;6.63;;;4.70;91.60;;;;;;4909725;29;20380;-65
2023/03/13 04:34:22;;;;;;;13.50;7.30;;;4.80;91.70;;;;;;4912866;29;20202;-65
2023/03/13 04:37:19;;;;;;;13.40;6.90;;;4.80;91.70;;;;;;4904876;29;20222;-65
2023/03/13 04:40:12;;;;;;;13.63;6.37;;;4.90;91.90;;;;;;4922859;29;20220;-65
2023/03/13 04:43:02;;;;;;;16.20;6.87;;;4.90;92.00;;;;;;4917502;29;20223;-65
2023/03/13 04:45:48;;;;;;;12.47;5.80;;;4.90;92.30;;;;;;4915270;29;20229;-65
2023/03/13 04:48:34;;;;;;;14.00;6.00;;;4.90;92.30;;;;;;4916391;29;20204;-65
2023/03/13 04:51:13;;;;;;;12.77;6.20;;;4.90;92.40;;;;;;4911448;29;20210;-65
2023/03/13 04:54:13;;;;;;;12.30;5.77;;;5.00;92.30;;;;;;4910218;29;20558;-65
2023/03/13 04:56:55;;;;;;;12.10;5.57;;;5.00;92.50;;;;;;4911587;29;20578;-65
2023/03/13 04:59:49;;;;;;;11.30;5.50;;;5.00;92.40;;;;;;4915061;29;20211;-65
2023/03/13 05:02:16;;;;;;;12.10;5.67;;;5.10;92.40;;;;;;4912242;29;20247;-65
2023/03/13 05:05:09;;;;;;;12.40;6.17;;;5.10;92.50;;;;;;4923626;29;20686;-65
2023/03/13 05:07:57;;;;;;;14.30;6.90;;;5.10;92.70;;;;;;4922682;29;20240;-65
2023/03/13 05:10:37;;;;;;;13.17;5.93;;;5.20;92.70;;;;;;4921158;29;20246;-65
2023/03/13 05:13:24;;;;;;;12.23;6.10;;;5.20;92.80;;;;;;4921884;29;20577;-65
2023/03/13 05:16:04;;;;;;;13.53;6.40;;;5.20;93.40;;;;;;4912211;29;20340;-65
2023/03/13 05:18:54;;;;;;;14.23;6.60;;;5.10;93.10;;;;;;4915325;29;20229;-65
2023/03/13 05:21:41;;;;;;;17.20;7.23;;;5.10;93.40;;;;;;4915740;29;20229;-65
2023/03/13 05:24:27;;;;;;;22.60;8.53;;;5.10;94.20;;;;;;4923402;29;20208;-65
2023/03/13 05:27:16;;;;;;;18.47;8.10;;;5.00;94.50;;;;;;4921700;29;20222;-65
2023/03/13 05:30:03;;;;;;;19.73;8.13;;;4.90;95.00;;;;;;4914946;29;20276;-65
2023/03/13 05:32:52;;;;;;;19.47;8.20;;;4.90;95.60;;;;;;4927903;29;20224;-65
2023/03/13 05:35:40;;;;;;;19.53;8.77;;;4.80;96.20;;;;;;4915398;29;20290;-65
2023/03/13 05:38:25;;;;;;;16.23;7.93;;;4.80;96.80;;;;;;4924914;29;20340;-65
2023/03/13 05:41:12;;;;;;;20.20;8.17;;;4.80;97.30;;;;;;4923606;29;20305;-65
2023/03/13 05:44:02;;;;;;;20.33;8.60;;;4.80;97.70;;;;;;4919125;29;20279;-65
2023/03/13 05:46:53;;;;;;;18.63;7.87;;;4.80;97.70;;;;;;4921587;29;20321;-65
2023/03/13 05:49:43;;;;;;;21.47;8.13;;;4.90;97.90;;;;;;4922399;29;20218;-65
2023/03/13 05:52:28;;;;;;;18.50;8.47;;;4.90;98.00;;;;;;4916371;29;20212;-65
2023/03/13 05:55:19;;;;;;;19.77;8.30;;;5.00;98.30;;;;;;4919398;29;20229;-65
2023/03/13 05:58:05;;;;;;;16.20;7.37;;;5.00;98.70;;;;;;4915673;29;20535;-65
2023/03/13 06:00:52;;;;;;;23.50;8.77;;;5.10;98.90;;;;;;4921508;29;20230;-65
2023/03/13 06:03:47;;;;;;;20.80;9.20;;;5.10;99.30;;;;;;4919788;29;20602;-65
2023/03/13 06:06:15;;;;;;;18.90;8.63;;;5.10;99.50;;;;;;4913524;29;20266;-65
2023/03/13 06:08:54;;;;;;;17.33;8.23;;;5.20;99.90;;;;;;4918372;29;20210;-65
2023/03/13 06:11:23;;;;;;;16.33;8.73;;;5.20;99.90;;;;;;4913478;29;20225;-65
2023/03/13 06:13:51;;;;;;;20.27;8.93;;;5.20;99.90;;;;;;4926893;29;20206;-65
2023/03/13 06:16:37;;;;;;;16.90;8.37;;;5.20;99.90;;;;;;4919243;29;20688;-65
2023/03/13 06:19:21;;;;;;;20.03;9.10;;;5.30;99.90;;;;;;4914433;29;20198;-65
2023/03/13 06:21:48;;;;;;;19.13;8.27;;;5.30;99.90;;;;;;4924078;29;20206;-65
2023/03/13 06:24:15;;;;;;;21.40;9.03;;;5.30;99.90;;;;;;4914514;29;20677;-65
2023/03/13 06:26:42;;;;;;;19.70;8.23;;;5.30;99.90;;;;;;4914318;29;20245;-66
2023/03/13 06:29:10;;;;;;;21.17;9.37;;;5.30;99.90;;;;;;4917931;29;20293;-65
2023/03/13 06:31:37;;;;;;;21.90;9.20;;;5.40;99.90;;;;;;4913002;29;20206;-66
2023/03/13 06:34:04;;;;;;;19.77;9.10;;;5.40;99.90;;;;;;4914083;29;20198;-66
2023/03/13 06:36:33;;;;;;;21.93;9.33;;;5.40;99.90;;;;;;4919493;29;20201;-65
2023/03/13 06:39:00;;;;;;;18.03;9.00;;;5.40;99.90;;;;;;4933069;29;20201;-65
2023/03/13 06:41:27;;;;;;;25.13;10.23;;;5.50;99.90;;;;;;4921242;29;20214;-65
2023/03/13 06:43:54;;;;;;;24.70;10.70;;;5.50;99.90;;;;;;4927131;29;20201;-65
2023/03/13 06:46:24;;;;;;;21.57;9.80;;;5.50;99.90;;;;;;4923928;29;20210;-65
2023/03/13 06:48:51;;;;;;;22.30;9.60;;;5.50;99.90;;;;;;4920319;29;20202;-65
2023/03/13 06:51:20;;;;;;;23.40;9.33;;;5.60;99.90;;;;;;4915943;29;20340;-64
2023/03/13 06:53:51;;;;;;;20.83;10.07;;;5.60;99.90;;;;;;4914860;29;20206;-64
2023/03/13 06:56:20;;;;;;;16.57;8.13;;;5.60;99.90;;;;;;4918779;29;20190;-66
2023/03/13 06:58:48;;;;;;;17.23;7.67;;;5.60;99.90;;;;;;4919233;29;20202;-65
2023/03/13 07:01:16;;;;;;;13.80;7.60;;;5.60;99.90;;;;;;4917018;29;20599;-65
2023/03/13 07:03:44;;;;;;;19.10;8.97;;;5.70;99.90;;;;;;4917148;29;20695;-66
2023/03/13 07:06:12;;;;;;;19.97;8.90;;;5.70;99.90;;;;;;4924273;29;20313;-66
2023/03/13 07:08:39;;;;;;;27.23;11.07;;;5.80;99.90;;;;;;4911706;29;22266;-65
2023/03/13 07:11:09;;;;;;;24.13;10.93;;;5.80;99.90;;;;;;4906649;29;20214;-65
2023/03/13 07:13:37;;;;;;;26.67;10.73;;;5.80;99.90;;;;;;4905139;29;20709;-66
2023/03/13 07:16:06;;;;;;;28.17;12.17;;;5.70;99.90;;;;;;4901767;29;20209;-66
2023/03/13 07:18:35;;;;;;;23.83;11.10;;;5.70;99.90;;;;;;4897352;29;20400;-65
2023/03/13 07:21:04;;;;;;;23.10;10.97;;;5.70;99.90;;;;;;4925819;29;20297;-66
2023/03/13 07:23:32;;;;;;;21.73;10.37;;;5.70;99.90;;;;;;4929693;29;20317;-66
2023/03/13 07:26:01;;;;;;;29.60;12.67;;;5.70;99.90;;;;;;4916998;29;20219;-68
2023/03/13 07:28:31;;;;;;;26.03;11.63;;;5.70;99.90;;;;;;4908171;29;20729;-67
2023/03/13 07:31:05;;;;;;;27.70;12.43;;;5.70;99.90;;;;;;4917094;29;20840;-67
2023/03/13 07:33:32;;;;;;;33.20;12.47;;;5.80;99.90;;;;;;4926661;29;20225;-67
2023/03/13 07:35:59;;;;;;;30.50;12.37;;;5.90;99.90;;;;;;4923500;29;20202;-67
2023/03/13 07:38:26;;;;;;;29.27;12.90;;;6.00;99.90;;;;;;4908914;29;20210;-67
2023/03/13 07:40:55;;;;;;;29.00;12.57;;;6.10;99.90;;;;;;4921316;29;20233;-67
2023/03/13 07:43:24;;;;;;;30.07;12.70;;;6.10;99.90;;;;;;4918495;29;20670;-67
2023/03/13 07:45:54;;;;;;;29.23;12.67;;;6.10;99.90;;;;;;4918630;29;20197;-67
2023/03/13 07:48:23;;;;;;;29.50;12.70;;;6.00;99.90;;;;;;4916657;29;20202;-67
2023/03/13 07:50:52;;;;;;;29.40;12.83;;;5.90;99.90;;;;;;4924257;29;20236;-67
2023/03/13 07:53:20;;;;;;;28.53;11.97;;;5.90;99.90;;;;;;4917522;29;20202;-66
2023/03/13 07:55:55;;;;;;;25.50;11.13;;;5.80;99.90;;;;;;4921916;29;20205;-67
2023/03/13 07:58:23;;;;;;;27.10;12.23;;;5.80;99.90;;;;;;4928791;29;20205;-67
2023/03/13 08:00:50;;;;;;;31.17;12.23;;;5.80;99.90;;;;;;4920285;29;20229;-67
2023/03/13 08:03:19;;;;;;;33.40;13.53;;;5.80;99.90;;;;;;4922604;29;20230;-67
2023/03/13 08:05:46;;;;;;;28.53;12.43;;;5.80;99.90;;;;;;4917694;29;20237;-67
2023/03/13 08:08:14;;;;;;;30.00;13.67;;;5.70;99.90;;;;;;4926894;29;20201;-68
2023/03/13 08:10:41;;;;;;;28.03;12.87;;;5.70;99.90;;;;;;4918492;29;20194;-67
2023/03/13 08:13:08;;;;;;;31.57;13.03;;;5.80;99.90;;;;;;4924337;29;20210;-67
2023/03/13 08:15:35;;;;;;;30.03;13.90;;;5.80;99.90;;;;;;4917111;29;20206;-68
2023/03/13 08:18:03;;;;;;;32.53;14.07;;;6.40;99.90;;;;;;4919195;29;20293;-67
2023/03/13 08:20:31;;;;;;;33.13;13.40;;;5.70;99.90;;;;;;4926264;29;20264;-67
2023/03/13 08:22:58;;;;;;;28.90;13.50;;;5.80;99.90;;;;;;4922796;29;20277;-67
2023/03/13 08:25:25;;;;;;;33.03;14.13;;;5.80;99.90;;;;;;4913362;29;20393;-67
2023/03/13 08:27:53;;;;;;;31.43;14.87;;;5.80;99.90;;;;;;4917141;29;20223;-67
2023/03/13 08:30:20;;;;;;;34.13;14.70;;;5.70;99.90;;;;;;4915603;29;20197;-67
2023/03/13 08:32:47;;;;;;;25.03;12.23;;;5.70;99.90;;;;;;4920811;29;20213;-67
2023/03/13 08:35:14;;;;;;;27.73;13.13;;;5.70;99.90;;;;;;4921074;29;20573;-67
2023/03/13 08:37:43;;;;;;;30.63;13.30;;;5.70;99.90;;;;;;4916578;29;20195;-67
2023/03/13 08:40:12;;;;;;;32.97;13.97;;;5.70;99.90;;;;;;4917964;29;20206;-68
2023/03/13 08:42:39;;;;;;;31.13;14.03;;;5.80;99.90;;;;;;4928755;29;20264;-67
2023/03/13 08:45:08;;;;;;;33.97;13.97;;;5.80;99.90;;;;;;4930914;29;20257;-68
2023/03/13 08:47:35;;;;;;;28.87;13.10;;;5.90;99.90;;;;;;4903981;29;20373;-67
2023/03/13 08:50:03;;;;;;;30.53;13.93;;;5.80;99.90;;;;;;4919791;29;20201;-67
2023/03/13 08:52:30;;;;;;;24.73;12.27;;;5.90;99.90;;;;;;4927369;29;20276;-68
2023/03/13 08:54:58;;;;;;;33.27;13.80;;;6.00;99.90;;;;;;4925054;29;20206;-68
2023/03/13 08:57:25;;;;;;;21.43;10.47;;;6.00;99.90;;;;;;4925157;29;20297;-67
2023/03/13 08:59:52;;;;;;;26.90;12.53;;;6.00;99.90;;;;;;4925085;29;20205;-68
2023/03/13 09:02:19;;;;;;;29.93;13.77;;;6.10;99.90;;;;;;4920630;29;20273;-67
2023/03/13 09:04:48;;;;;;;25.37;12.77;;;6.20;99.90;;;;;;4910642;29;20298;-67
2023/03/13 09:07:16;;;;;;;31.40;15.07;;;6.20;99.90;;;;;;4918105;29;20216;-67
2023/03/13 09:09:44;;;;;;;34.50;14.83;;;6.30;99.90;;;;;;4927265;29;20631;-68
2023/03/13 09:12:12;;;;;;;29.13;13.87;;;6.30;99.90;;;;;;4920890;29;20312;-67
2023/03/13 09:14:40;;;;;;;35.10;15.37;;;6.30;99.90;;;;;;4913261;29;20223;-68
2023/03/13 09:17:07;;;;;;;38.50;16.50;;;6.30;99.90;;;;;;4923660;29;20198;-67
2023/03/13 09:19:34;;;;;;;34.33;14.40;;;6.30;99.90;;;;;;4924865;29;20206;-67
2023/03/13 09:22:01;;;;;;;33.63;14.23;;;6.40;99.90;;;;;;4917833;29;20362;-67
2023/03/13 09:24:28;;;;;;;29.77;14.57;;;6.40;99.90;;;;;;4922357;29;20662;-68
2023/03/13 09:26:56;;;;;;;38.33;15.43;;;6.40;99.90;;;;;;4921123;29;20222;-68
2023/03/13 09:29:24;;;;;;;33.33;15.40;;;6.40;99.90;;;;;;4916300;29;20212;-67
2023/03/13 09:31:51;;;;;;;27.27;14.03;;;6.40;99.90;;;;;;4924678;29;20643;-67
2023/03/13 09:34:19;;;;;;;30.20;14.57;;;6.50;99.90;;;;;;4920944;29;20207;-67
2023/03/13 09:36:46;;;;;;;34.27;15.47;;;6.50;99.90;;;;;;4921276;29;20291;-67
2023/03/13 09:39:13;;;;;;;32.30;15.80;;;6.50;99.90;;;;;;4910913;29;20718;-67
2023/03/13 09:41:47;;;;;;;30.97;15.83;;;6.50;99.90;;;;;;4912209;29;20214;-68
2023/03/13 09:44:20;;;;;;;33.00;16.90;;;6.50;99.90;;;;;;4921565;29;20273;-67
2023/03/13 09:46:59;;;;;;;43.73;18.20;;;6.50;99.90;;;;;;4917507;29;20221;-67
2023/03/13 09:49:31;;;;;;;40.60;19.17;;;6.60;99.90;;;;;;4907996;29;20194;-67
2023/03/13 09:52:11;;;;;;;47.50;20.30;;;6.50;99.90;;;;;;4909977;29;20202;-68
2023/03/13 09:54:43;;;;;;;39.30;18.30;;;6.60;99.90;;;;;;4920980;29;20208;-67
2023/03/13 09:57:18;;;;;;;40.37;17.67;;;6.50;99.90;;;;;;4923053;29;20649;-68
2023/03/13 09:59:51;;;;;;;44.93;19.50;;;6.50;99.90;;;;;;4923289;29;20205;-67
2023/03/13 10:02:29;;;;;;;40.07;18.17;;;6.60;99.90;;;;;;4906964;29;20261;-68
2023/03/13 10:05:12;;;;;;;42.93;19.07;;;6.60;99.90;;;;;;4907919;29;20302;-67
2023/03/13 10:07:39;;;;;;;41.60;19.07;;;6.50;99.90;;;;;;4909272;29;20217;-67
2023/03/13 10:10:13;;;;;;;38.27;18.03;;;6.60;99.90;;;;;;4908156;29;20282;-68
2023/03/13 10:12:44;;;;;;;45.17;21.20;;;6.60;99.90;;;;;;4908675;29;20698;-68
2023/03/13 10:15:42;;;;;;;43.67;20.03;;;6.60;99.90;;;;;;4905966;29;20203;-67
2023/03/13 10:18:20;;;;;;;42.10;19.23;;;6.60;99.90;;;;;;4918836;29;20195;-68
2023/03/13 10:20:50;;;;;;;38.90;19.07;;;6.60;99.90;;;;;;4923062;29;20208;-68
2023/03/13 10:23:22;;;;;;;36.67;18.27;;;6.60;99.90;;;;;;4923017;29;20194;-68
2023/03/13 10:25:49;;;;;;;40.53;18.17;;;6.70;99.90;;;;;;4911790;29;20199;-67
2023/03/13 10:28:19;;;;;;;36.33;17.30;;;6.70;99.90;;;;;;4922486;29;20203;-68
2023/03/13 10:30:50;;;;;;;33.60;17.00;;;6.60;99.90;;;;;;4928581;29;20277;-68
2023/03/13 10:33:25;;;;;;;35.57;17.23;;;6.70;99.90;;;;;;4923308;29;20202;-68
2023/03/13 10:36:04;;;;;;;38.33;18.97;;;6.70;99.90;;;;;;4918981;29;20218;-67
2023/03/13 10:38:35;;;;;;;34.30;17.57;;;6.80;99.90;;;;;;4920370;29;20301;-68
2023/03/13 10:41:07;;;;;;;40.10;19.80;;;6.80;99.90;;;;;;4927457;28;20222;-68
2023/03/13 10:43:34;;;;;;;41.87;20.10;;;6.80;99.90;;;;;;4926683;29;20278;-68
2023/03/13 10:46:02;;;;;;;39.23;18.93;;;6.80;99.90;;;;;;4921891;29;20293;-68
2023/03/13 10:48:36;;;;;;;37.57;17.90;;;6.80;99.90;;;;;;4924033;29;20754;-68
2023/03/13 10:51:04;;;;;;;35.33;17.50;;;6.80;99.90;;;;;;4925543;29;20213;-66
2023/03/13 10:53:36;;;;;;;33.47;17.83;;;6.80;99.90;;;;;;4921726;29;20562;-62
2023/03/13 10:56:10;;;;;;;31.87;15.90;;;6.80;99.90;;;;;;4926818;29;20285;-63
2023/03/13 10:58:42;;;;;;;34.13;16.67;;;6.80;99.90;;;;;;4931555;29;20202;-63
2023/03/13 11:01:18;;;;;;;37.43;18.50;;;6.80;99.90;;;;;;4918169;29;20206;-60
2023/03/13 11:03:49;;;;;;;32.27;17.80;;;6.90;99.90;;;;;;4928325;29;20367;-61
2023/03/13 11:06:31;;;;;;;31.47;16.30;;;6.90;99.90;;;;;;4927857;29;20198;-61
2023/03/13 11:09:11;;;;;;;32.87;17.10;;;6.90;99.90;;;;;;4927990;29;20332;-61
2023/03/13 11:11:47;;;;;;;37.93;19.30;;;6.90;99.90;;;;;;4937660;29;20291;-61
2023/03/13 11:14:17;;;;;;;43.50;19.93;;;6.90;99.90;;;;;;4932601;28;20290;-61
2023/03/13 11:16:49;;;;;;;33.23;18.40;;;6.90;99.90;;;;;;4925305;29;20206;-62
2023/03/13 11:19:33;;;;;;;44.53;21.20;;;6.90;99.90;;;;;;4921252;28;20549;-62
2023/03/13 11:22:22;;;;;;;37.67;19.23;;;6.90;99.90;;;;;;4921942;29;20505;-61
2023/03/13 11:24:58;;;;;;;34.60;18.07;;;6.90;99.90;;;;;;4919591;29;20226;-61
2023/03/13 11:27:32;;;;;;;38.60;19.23;;;6.80;99.90;;;;;;4927733;29;20239;-62
2023/03/13 11:30:11;;;;;;;40.00;20.60;;;6.90;99.90;;;;;;4922099;29;20217;-62
2023/03/13 11:32:43;;;;;;;38.67;20.17;;;6.80;99.90;;;;;;4926434;29;20202;-62
2023/03/13 11:35:26;;;;;;;38.10;18.97;;;6.90;99.90;;;;;;4928623;29;20208;-62
2023/03/13 11:37:56;;;;;;;43.80;20.87;;;6.80;99.90;;;;;;4914363;29;20555;-62
2023/03/13 11:40:32;;;;;;;41.77;20.27;;;6.90;99.90;;;;;;4929097;29;20729;-62
2023/03/13 11:43:14;;;;;;;42.23;20.03;;;6.90;99.90;;;;;;4919404;29;20646;-62
2023/03/13 11:46:10;;;;;;;40.40;20.20;;;6.80;99.90;;;;;;4920194;29;20447;-69
2023/03/13 11:49:12;;;;;;;38.37;19.87;;;6.80;99.90;;;;;;4929464;29;20218;-69
2023/03/13 11:51:52;;;;;;;37.67;19.67;;;6.80;99.90;;;;;;4906972;29;20234;-69
2023/03/13 11:54:43;;;;;;;37.43;19.17;;;6.90;99.90;;;;;;4918753;29;20510;-69
2023/03/13 11:57:14;;;;;;;40.50;18.53;;;6.90;99.90;;;;;;4925205;29;20246;-70
2023/03/13 11:59:48;;;;;;;32.47;17.47;;;6.90;99.90;;;;;;4931054;29;20195;-69
2023/03/13 12:02:22;;;;;;;41.23;19.67;;;6.90;99.90;;;;;;4923472;29;20243;-69
2023/03/13 12:04:54;;;;;;;34.90;18.13;;;6.90;99.90;;;;;;4923671;29;20436;-69
2023/03/13 12:07:28;;;;;;;40.60;18.77;;;6.90;99.90;;;;;;4930912;29;20207;-69
2023/03/13 12:10:00;;;;;;;35.07;17.97;;;6.90;99.90;;;;;;4929286;29;20203;-69
2023/03/13 12:12:38;;;;;;;36.50;19.37;;;6.90;99.90;;;;;;4924383;29;20205;-69
2023/03/13 12:15:16;;;;;;;35.83;17.27;;;7.00;99.90;;;;;;4930126;29;20203;-70
2023/03/13 12:17:49;;;;;;;32.60;18.43;;;7.00;99.90;;;;;;4923782;29;20195;-69
2023/03/13 12:20:22;;;;;;;36.83;19.13;;;7.00;99.90;;;;;;4925125;29;20218;-69
2023/03/13 12:22:58;;;;;;;39.07;19.27;;;7.00;99.90;;;;;;4927328;29;20627;-69
2023/03/13 12:25:28;;;;;;;32.87;16.97;;;7.00;99.90;;;;;;4920662;29;20202;-69
2023/03/13 12:28:03;;;;;;;34.13;18.47;;;7.00;99.90;;;;;;4923616;29;20272;-69
2023/03/13 12:30:38;;;;;;;36.87;20.57;;;7.00;99.90;;;;;;4924190;29;20296;-69
2023/03/13 12:33:16;;;;;;;42.87;20.97;;;7.00;99.90;;;;;;4926114;29;20254;-69
2023/03/13 12:35:47;;;;;;;42.17;21.73;;;7.10;99.90;;;;;;4924307;29;20194;-69
2023/03/13 12:38:24;;;;;;;48.37;21.43;;;7.10;99.90;;;;;;4920128;29;20202;-69
2023/03/13 12:41:00;;;;;;;48.83;21.17;;;7.10;99.90;;;;;;4922874;29;20472;-69
2023/03/13 12:43:31;;;;;;;48.80;20.13;;;7.10;99.90;;;;;;4929022;29;20297;-69
2023/03/13 12:46:14;;;;;;;36.47;17.20;;;7.20;99.90;;;;;;4914029;29;20201;-69
2023/03/13 12:49:10;;;;;;;34.07;16.43;;;7.10;99.90;;;;;;4929039;29;20227;-70
2023/03/13 12:51:50;;;;;;;30.83;14.13;;;7.20;99.90;;;;;;4916078;29;20198;-68
2023/03/13 12:54:46;;;;;;;25.57;13.40;;;7.30;99.90;;;;;;4924002;29;20216;-68
2023/03/13 12:57:25;;;;;;;28.17;13.57;;;7.30;99.90;;;;;;4929787;29;20200;-69
2023/03/13 12:59:57;;;;;;;29.57;15.07;;;7.30;99.90;;;;;;4923377;29;20202;-69
2023/03/13 13:02:28;;;;;;;22.57;12.30;;;7.40;99.90;;;;;;4920136;28;20233;-70
2023/03/13 13:04:57;;;;;;;25.77;12.70;;;7.40;99.90;;;;;;4917839;29;20228;-69
2023/03/13 13:07:26;;;;;;;24.47;12.70;;;7.40;99.90;;;;;;4921706;29;20599;-70